TAF PADQ
PADQ 081736Z 0818/0918 26010G20KT P6SM OVC050 FM082100 26015G25KT P6SM SCT050 FM090600 24008KT P6SM SCT150=
METAR PADQ
WC PADQ
WS PADQ
WV PADQ